Time;durP1;ratioP1;P1;durP2;ratioP2;P2;SDS_P1;SDS_P2;PMS_P1;PMS_P2;Temp;Humidity;BMP_temperature;BMP_pressure;BME280_temperature;BME280_humidity;BME280_pressure;Samples;Min_cycle;Max_cycle;Signal;HPM_P1;HPM_P2
2022/05/02 00:01:24;;;;;;;;;;;14.30;99.80;;;;;;5083440;28;19912;-84
2022/05/02 00:03:50;;;;;;;;;;;14.30;99.70;;;;;;5083352;28;20023;-85
2022/05/02 00:06:15;;;;;;;;;;;14.20;99.80;;;;;;5083025;28;19916;-85
2022/05/02 00:08:41;;;;;;;;;;;14.20;99.90;;;;;;5065572;28;19912;-84
2022/05/02 00:11:06;;;;;;;;;;;14.20;99.80;;;;;;5083454;28;19983;-85
2022/05/02 00:13:32;;;;;;;;;;;14.20;99.90;;;;;;5083252;28;19911;-85
2022/05/02 00:15:58;;;;;;;;;;;14.20;99.80;;;;;;5083233;28;19904;-84
2022/05/02 00:18:24;;;;;;;;;;;14.20;99.90;;;;;;5065307;28;19926;-85
2022/05/02 00:20:49;;;;;;;;;;;14.10;99.90;;;;;;5082676;28;19927;-84
2022/05/02 00:23:15;;;;;;;;;;;14.10;99.90;;;;;;5082903;28;20215;-85
2022/05/02 00:25:40;;;;;;;;;;;14.10;99.90;;;;;;5065083;28;20267;-85
2022/05/02 00:28:10;;;;;;;;;;;14.10;99.90;;;;;;5083069;28;20069;-85
2022/05/02 00:30:36;;;;;;;;;;;14.10;99.90;;;;;;5083149;28;20010;-84
2022/05/02 00:33:01;;;;;;;;;;;14.00;99.90;;;;;;5082819;28;20109;-85
2022/05/02 00:35:27;;;;;;;;;;;14.00;99.90;;;;;;5064270;28;19904;-84
2022/05/02 00:37:52;;;;;;;;;;;14.00;99.90;;;;;;5065128;28;19905;-85
2022/05/02 00:40:18;;;;;;;;;;;14.00;99.90;;;;;;5082677;28;20024;-84
2022/05/02 00:42:45;;;;;;;;;;;14.00;99.90;;;;;;5082861;28;19912;-85
2022/05/02 00:45:14;;;;;;;;;;;14.00;99.90;;;;;;5082999;28;19975;-85
2022/05/02 00:47:39;;;;;;;;;;;14.00;99.90;;;;;;5082647;28;20223;-85
2022/05/02 00:50:06;;;;;;;;;;;13.90;99.90;;;;;;5064348;28;19904;-85
2022/05/02 00:52:31;;;;;;;;;;;13.90;99.90;;;;;;5082018;28;19905;-85
2022/05/02 00:54:58;;;;;;;;;;;14.00;99.90;;;;;;5082294;28;19962;-85
2022/05/02 00:57:24;;;;;;;;;;;13.90;99.90;;;;;;5082504;28;19904;-85
2022/05/02 00:59:49;;;;;;;;;;;14.00;99.90;;;;;;5081957;28;19950;-85
2022/05/02 01:02:15;;;;;;;;;;;14.00;99.90;;;;;;5082251;28;19947;-85
2022/05/02 01:04:42;;;;;;;;;;;14.00;99.90;;;;;;5082054;28;19912;-85
2022/05/02 01:07:20;;;;;;;;;;;14.00;99.90;;;;;;5064280;28;19976;-85
2022/05/02 01:09:50;;;;;;;;;;;14.00;99.90;;;;;;5082283;28;19908;-85
2022/05/02 01:12:17;;;;;;;;;;;14.00;99.90;;;;;;5082044;28;19911;-85
2022/05/02 01:14:44;;;;;;;;;;;14.00;99.90;;;;;;5082437;28;19905;-85
2022/05/02 01:17:09;;;;;;;;;;;14.00;99.90;;;;;;5082093;28;19904;-85
2022/05/02 01:19:35;;;;;;;;;;;14.00;99.90;;;;;;5081778;28;19910;-85
2022/05/02 01:22:02;;;;;;;;;;;14.10;99.90;;;;;;5064046;28;20215;-85
2022/05/02 01:24:31;;;;;;;;;;;14.10;99.90;;;;;;5081952;28;19908;-85
2022/05/02 01:26:58;;;;;;;;;;;14.00;99.90;;;;;;5082171;28;19916;-85
2022/05/02 01:29:24;;;;;;;;;;;14.00;99.70;;;;;;5081960;28;19942;-85
2022/05/02 01:31:49;;;;;;;;;;;14.10;99.80;;;;;;5081843;28;19908;-85
2022/05/02 01:34:15;;;;;;;;;;;14.10;99.90;;;;;;5081509;28;20082;-85
2022/05/02 01:36:43;;;;;;;;;;;14.00;99.90;;;;;;5063687;28;20215;-85
2022/05/02 01:39:08;;;;;;;;;;;14.00;99.90;;;;;;5064008;28;19912;-85
2022/05/02 01:41:34;;;;;;;;;;;14.00;99.80;;;;;;5063260;28;19904;-85
2022/05/02 01:43:59;;;;;;;;;;;14.00;99.90;;;;;;5080819;28;20104;-85
2022/05/02 01:46:25;;;;;;;;;;;13.90;99.90;;;;;;5080887;28;19905;-84
2022/05/02 01:48:50;;;;;;;;;;;13.90;99.90;;;;;;5080288;28;19905;-85
2022/05/02 01:51:16;;;;;;;;;;;13.90;99.90;;;;;;5080773;28;19911;-85
2022/05/02 01:53:42;;;;;;;;;;;13.90;99.90;;;;;;5063039;28;19976;-85
2022/05/02 01:56:07;;;;;;;;;;;13.90;99.90;;;;;;5081711;28;20169;-85
2022/05/02 01:58:33;;;;;;;;;;;14.00;99.80;;;;;;5081247;28;19904;-84
2022/05/02 02:00:59;;;;;;;;;;;14.00;99.80;;;;;;5081152;28;19911;-85
2022/05/02 02:03:24;;;;;;;;;;;13.90;99.80;;;;;;5080677;28;20101;-85
2022/05/02 02:05:50;;;;;;;;;;;13.90;99.80;;;;;;5082737;28;19963;-85
2022/05/02 02:08:20;;;;;;;;;;;13.90;99.80;;;;;;5085335;28;19913;-85
2022/05/02 02:10:46;;;;;;;;;;;14.00;99.70;;;;;;5067666;28;20180;-85
2022/05/02 02:13:12;;;;;;;;;;;14.00;99.80;;;;;;5067503;28;20219;-85
2022/05/02 02:15:37;;;;;;;;;;;14.00;99.80;;;;;;5084970;28;19947;-85
2022/05/02 02:18:03;;;;;;;;;;;14.00;99.70;;;;;;5067141;28;20157;-85
2022/05/02 02:20:29;;;;;;;;;;;14.00;99.80;;;;;;5084900;28;19904;-85
2022/05/02 02:22:55;;;;;;;;;;;13.90;99.90;;;;;;5066937;28;20146;-84
2022/05/02 02:25:21;;;;;;;;;;;13.90;99.80;;;;;;5066977;28;19990;-85
2022/05/02 02:27:47;;;;;;;;;;;13.80;99.90;;;;;;5084964;28;19913;-85
2022/05/02 02:30:14;;;;;;;;;;;13.90;99.80;;;;;;5066193;28;19905;-85
2022/05/02 02:32:41;;;;;;;;;;;13.80;99.90;;;;;;5085274;28;19905;-85
2022/05/02 02:35:07;;;;;;;;;;;13.70;99.70;;;;;;5083679;28;19913;-84
2022/05/02 02:37:33;;;;;;;;;;;13.70;99.90;;;;;;5085031;28;19983;-85
2022/05/02 02:39:58;;;;;;;;;;;13.70;99.90;;;;;;5084621;28;19975;-85
2022/05/02 02:42:24;;;;;;;;;;;13.70;99.90;;;;;;5083577;28;19909;-85
2022/05/02 02:44:50;;;;;;;;;;;13.60;99.90;;;;;;5065100;28;19934;-85
2022/05/02 02:47:16;;;;;;;;;;;13.60;99.90;;;;;;5084283;28;19901;-85
2022/05/02 02:49:41;;;;;;;;;;;13.60;99.90;;;;;;5065801;28;20193;-85
2022/05/02 02:52:08;;;;;;;;;;;13.50;99.90;;;;;;5066108;28;19904;-85
2022/05/02 02:54:34;;;;;;;;;;;13.50;99.90;;;;;;5066331;28;19943;-84
2022/05/02 02:56:59;;;;;;;;;;;13.50;99.90;;;;;;5085121;28;20115;-85
2022/05/02 02:59:25;;;;;;;;;;;13.50;99.90;;;;;;5084403;28;19905;-85
2022/05/02 03:01:50;;;;;;;;;;;13.50;99.90;;;;;;5077323;28;19908;-84
2022/05/02 03:07:01;;;;;;;;;;;13.40;99.90;;;;;;5084347;28;20250;-84
2022/05/02 03:09:27;;;;;;;;;;;13.40;99.90;;;;;;5084016;28;19905;-85
2022/05/02 03:11:53;;;;;;;;;;;13.40;99.90;;;;;;5066439;28;20105;-85
2022/05/02 03:14:19;;;;;;;;;;;13.40;99.90;;;;;;5084330;28;19977;-85
2022/05/02 03:16:44;;;;;;;;;;;13.40;99.90;;;;;;5066156;28;19911;-85
2022/05/02 03:19:10;;;;;;;;;;;13.40;99.90;;;;;;5083813;28;19904;-84
2022/05/02 03:21:36;;;;;;;;;;;13.40;99.90;;;;;;5084129;28;19904;-85
2022/05/02 03:24:01;;;;;;;;;;;13.30;99.90;;;;;;5083957;28;19923;-85
2022/05/02 03:26:27;;;;;;;;;;;13.30;99.90;;;;;;5083885;28;19923;-85
2022/05/02 03:28:52;;;;;;;;;;;13.30;99.90;;;;;;5066169;28;20089;-85
2022/05/02 03:31:18;;;;;;;;;;;13.30;99.90;;;;;;5083982;28;19904;-85
2022/05/02 03:33:43;;;;;;;;;;;13.20;99.90;;;;;;5083684;28;19904;-85
2022/05/02 03:36:09;;;;;;;;;;;13.20;99.90;;;;;;5083863;28;19950;-85
2022/05/02 03:38:34;;;;;;;;;;;13.20;99.90;;;;;;5065059;28;19905;-84
2022/05/02 03:41:00;;;;;;;;;;;13.10;99.90;;;;;;5082679;28;19904;-85
2022/05/02 03:43:25;;;;;;;;;;;13.10;99.90;;;;;;5064299;28;19919;-85
2022/05/02 03:45:51;;;;;;;;;;;13.10;99.90;;;;;;5064406;28;19909;-85
2022/05/02 03:48:16;;;;;;;;;;;13.00;99.90;;;;;;5083645;28;19980;-85
2022/05/02 03:50:42;;;;;;;;;;;13.00;99.90;;;;;;5083109;28;19919;-85
2022/05/02 03:53:08;;;;;;;;;;;12.90;99.90;;;;;;5083311;28;19911;-85
2022/05/02 03:55:33;;;;;;;;;;;12.90;99.90;;;;;;5083769;28;19950;-85
2022/05/02 03:57:59;;;;;;;;;;;12.90;99.90;;;;;;5082993;28;20092;-85
2022/05/02 04:00:24;;;;;;;;;;;12.80;99.90;;;;;;5065125;28;19904;-85
2022/05/02 04:02:50;;;;;;;;;;;12.80;99.90;;;;;;5083411;28;19916;-84
2022/05/02 04:05:15;;;;;;;;;;;12.80;99.90;;;;;;5083033;28;19904;-85
2022/05/02 04:07:41;;;;;;;;;;;12.70;99.90;;;;;;5083139;28;19915;-85
2022/05/02 04:10:07;;;;;;;;;;;12.80;99.90;;;;;;5064660;28;19904;-85
2022/05/02 04:12:39;;;;;;;;;;;12.80;99.90;;;;;;5076571;28;19967;-85
2022/05/02 04:15:05;;;;;;;;;;;12.70;99.90;;;;;;5082726;28;19958;-85
2022/05/02 04:17:30;;;;;;;;;;;12.70;99.90;;;;;;5064845;28;19905;-85
2022/05/02 04:19:56;;;;;;;;;;;12.80;99.90;;;;;;5082598;28;19911;-85
2022/05/02 04:22:22;;;;;;;;;;;12.70;99.90;;;;;;5064227;28;19904;-85
2022/05/02 04:24:47;;;;;;;;;;;12.70;99.90;;;;;;5082093;28;20357;-85
2022/05/02 04:27:13;;;;;;;;;;;12.70;99.90;;;;;;5081164;28;19920;-85
2022/05/02 04:29:38;;;;;;;;;;;12.70;99.90;;;;;;5082302;28;19905;-85
2022/05/02 04:32:04;;;;;;;;;;;12.70;99.90;;;;;;5082630;28;19949;-85
2022/05/02 04:34:29;;;;;;;;;;;12.70;99.90;;;;;;5082280;28;19905;-85
2022/05/02 04:36:55;;;;;;;;;;;12.70;99.90;;;;;;5064903;28;20148;-85
2022/05/02 04:39:20;;;;;;;;;;;12.80;99.90;;;;;;5082302;28;19908;-85
2022/05/02 04:41:46;;;;;;;;;;;12.70;99.90;;;;;;5063872;28;20097;-85
2022/05/02 04:44:12;;;;;;;;;;;12.70;99.90;;;;;;5080998;28;19950;-85
2022/05/02 04:46:37;;;;;;;;;;;12.70;99.90;;;;;;5082043;28;19974;-84
2022/05/02 04:49:02;;;;;;;;;;;12.70;99.90;;;;;;5082569;28;19909;-85
2022/05/02 04:51:28;;;;;;;;;;;12.70;99.90;;;;;;5082056;28;20124;-85
2022/05/02 04:53:54;;;;;;;;;;;12.70;99.90;;;;;;5081102;28;20238;-85
2022/05/02 04:56:19;;;;;;;;;;;12.70;99.90;;;;;;5082187;28;20109;-85
2022/05/02 04:58:45;;;;;;;;;;;12.70;99.90;;;;;;5082303;28;20173;-85
2022/05/02 05:01:11;;;;;;;;;;;12.70;99.90;;;;;;5063984;28;19911;-85
2022/05/02 05:03:36;;;;;;;;;;;12.70;99.90;;;;;;5081102;28;19947;-85
2022/05/02 05:06:02;;;;;;;;;;;12.70;99.90;;;;;;5082245;28;19904;-85
2022/05/02 05:08:28;;;;;;;;;;;12.70;99.90;;;;;;5082135;28;19924;-85
2022/05/02 05:11:00;;;;;;;;;;;12.70;99.90;;;;;;5082017;28;19971;-84
2022/05/02 05:13:34;;;;;;;;;;;12.70;99.90;;;;;;5081950;28;19941;-85
2022/05/02 05:16:20;;;;;;;;;;;12.70;99.90;;;;;;5082011;28;19904;-85
2022/05/02 05:18:46;;;;;;;;;;;12.70;99.90;;;;;;5081831;28;20156;-85
2022/05/02 05:21:16;;;;;;;;;;;12.70;99.90;;;;;;5082007;28;19904;-85
2022/05/02 05:24:01;;;;;;;;;;;12.70;99.90;;;;;;5064060;28;19980;-85
2022/05/02 05:26:35;;;;;;;;;;;12.70;99.90;;;;;;5063786;28;19916;-84
2022/05/02 05:29:09;;;;;;;;;;;12.80;99.90;;;;;;5081870;28;19983;-85
2022/05/02 05:31:41;;;;;;;;;;;12.80;99.90;;;;;;5076461;28;20215;-84
2022/05/02 05:34:16;;;;;;;;;;;12.80;99.90;;;;;;5063445;28;20066;-84
2022/05/02 05:36:55;;;;;;;;;;;12.80;99.90;;;;;;5069859;28;20003;-84
2022/05/02 05:39:41;;;;;;;;;;;12.80;99.90;;;;;;5051502;28;19915;-84
2022/05/02 05:42:10;;;;;;;;;;;12.90;99.90;;;;;;5027933;28;19966;-84
2022/05/02 05:44:49;;;;;;;;;;;12.90;99.90;;;;;;5043542;28;19917;-84
2022/05/02 05:47:26;;;;;;;;;;;12.90;99.90;;;;;;5066727;28;20008;-84
2022/05/02 05:49:58;;;;;;;;;;;13.00;99.90;;;;;;5067554;28;19915;-84
2022/05/02 05:52:33;;;;;;;;;;;13.10;99.90;;;;;;5069618;28;19955;-85
2022/05/02 05:54:59;;;;;;;;;;;13.10;99.90;;;;;;5069848;28;20167;-84
2022/05/02 05:57:32;;;;;;;;;;;13.20;99.90;;;;;;5070589;28;20262;-84
2022/05/02 05:59:58;;;;;;;;;;;13.20;99.90;;;;;;5069981;28;19908;-84
2022/05/02 06:02:32;;;;;;;;;;;13.30;99.90;;;;;;5069861;28;19919;-84
2022/05/02 06:04:58;;;;;;;;;;;13.30;99.90;;;;;;5069586;28;19912;-84
2022/05/02 06:07:27;;;;;;;;;;;13.30;99.90;;;;;;5051896;28;20261;-84
2022/05/02 06:09:53;;;;;;;;;;;13.40;99.90;;;;;;5071731;28;19912;-84
2022/05/02 06:12:19;;;;;;;;;;;13.40;99.90;;;;;;5054989;28;19912;-87
2022/05/02 06:20:18;;;;;;;;;;;13.40;99.90;;;;;;5065684;28;19954;-85
2022/05/02 06:22:45;;;;;;;;;;;13.50;99.90;;;;;;5071009;28;19939;-85
2022/05/02 06:25:13;;;;;;;;;;;13.50;99.90;;;;;;5052792;28;20386;-85
2022/05/02 06:27:40;;;;;;;;;;;13.50;99.90;;;;;;5071845;28;19927;-85
2022/05/02 06:30:06;;;;;;;;;;;13.40;99.90;;;;;;5073183;28;19912;-85
2022/05/02 06:32:34;;;;;;;;;;;13.50;99.90;;;;;;5070008;28;20194;-85
2022/05/02 06:34:59;;;;;;;;;;;13.60;99.90;;;;;;5069573;28;19909;-85
2022/05/02 06:37:36;;;;;;;;;;;13.60;99.90;;;;;;5069872;28;19931;-85
2022/05/02 06:40:03;;;;;;;;;;;13.70;99.90;;;;;;5069634;28;20433;-85
2022/05/02 06:43:05;;;;;;;;;;;13.80;99.90;;;;;;5069525;28;19918;-85
2022/05/02 06:45:37;;;;;;;;;;;13.80;99.90;;;;;;4952126;28;19918;-85
2022/05/02 06:48:03;;;;;;;;;;;13.80;99.90;;;;;;5034623;28;19915;-85
2022/05/02 06:50:31;;;;;;;;;;;13.90;99.90;;;;;;5051602;28;20242;-85
2022/05/02 06:53:02;;;;;;;;;;;13.90;99.90;;;;;;5073269;28;19909;-85
2022/05/02 06:55:46;;;;;;;;;;;14.00;99.90;;;;;;5073431;28;19916;-85
2022/05/02 06:58:21;;;;;;;;;;;14.00;99.90;;;;;;5055080;28;20003;-85
2022/05/02 07:00:52;;;;;;;;;;;14.10;99.90;;;;;;5072957;28;19963;-85
2022/05/02 07:03:31;;;;;;;;;;;14.20;99.90;;;;;;5054823;28;19916;-85
2022/05/02 07:06:06;;;;;;;;;;;14.30;99.90;;;;;;5072956;28;19908;-85
2022/05/02 07:08:33;;;;;;;;;;;14.50;99.90;;;;;;5073065;28;19913;-85
2022/05/02 07:11:03;;;;;;;;;;;14.40;99.90;;;;;;5072880;28;19915;-85
2022/05/02 07:13:29;;;;;;;;;;;14.50;99.90;;;;;;5072727;28;19930;-84
2022/05/02 07:16:10;;;;;;;;;;;14.70;99.90;;;;;;5072975;28;19909;-85
2022/05/02 07:18:41;;;;;;;;;;;14.80;99.90;;;;;;5072453;28;19916;-84
2022/05/02 07:21:25;;;;;;;;;;;14.90;99.90;;;;;;5072699;28;19915;-85
2022/05/02 07:23:51;;;;;;;;;;;15.10;99.90;;;;;;5072714;28;20438;-85
2022/05/02 07:26:18;;;;;;;;;;;15.20;99.90;;;;;;5072299;28;19924;-84
2022/05/02 07:28:51;;;;;;;;;;;15.20;99.70;;;;;;5072612;28;19967;-85
2022/05/02 07:31:25;;;;;;;;;;;15.40;99.70;;;;;;5072545;28;19913;-85
2022/05/02 07:33:52;;;;;;;;;;;15.50;99.90;;;;;;5054099;28;20265;-85
2022/05/02 07:36:19;;;;;;;;;;;15.70;99.80;;;;;;5072384;28;19908;-85
2022/05/02 07:38:46;;;;;;;;;;;15.80;99.50;;;;;;5072408;28;19908;-85
2022/05/02 07:41:27;;;;;;;;;;;16.00;99.60;;;;;;5072273;28;19908;-85
2022/05/02 07:43:58;;;;;;;;;;;16.10;99.20;;;;;;5072251;28;20008;-85
2022/05/02 07:46:28;;;;;;;;;;;16.20;99.00;;;;;;5071946;28;19939;-85
2022/05/02 07:48:55;;;;;;;;;;;16.20;98.50;;;;;;5072265;28;19966;-85
2022/05/02 07:51:21;;;;;;;;;;;16.30;98.80;;;;;;5071875;28;19947;-85
2022/05/02 07:53:49;;;;;;;;;;;16.40;98.20;;;;;;5071996;28;20539;-85
2022/05/02 07:56:15;;;;;;;;;;;16.40;98.10;;;;;;5072023;28;19956;-85
2022/05/02 07:58:41;;;;;;;;;;;16.50;98.30;;;;;;5072193;28;19918;-85
2022/05/02 08:01:07;;;;;;;;;;;16.40;97.80;;;;;;5072215;28;20389;-85
2022/05/02 08:03:33;;;;;;;;;;;16.50;97.90;;;;;;5070402;28;19920;-85
2022/05/02 08:06:06;;;;;;;;;;;16.60;98.00;;;;;;5065587;28;20385;-85
2022/05/02 08:08:39;;;;;;;;;;;16.80;98.00;;;;;;5071805;28;19965;-85
2022/05/02 08:11:05;;;;;;;;;;;16.90;97.80;;;;;;5072179;28;19909;-85
2022/05/02 08:13:51;;;;;;;;;;;17.00;97.20;;;;;;5071569;28;19908;-86
2022/05/02 08:16:22;;;;;;;;;;;17.00;97.00;;;;;;5036238;28;20380;-86
2022/05/02 08:18:50;;;;;;;;;;;17.00;97.20;;;;;;5053348;28;19915;-86
2022/05/02 08:21:16;;;;;;;;;;;17.20;97.10;;;;;;5071480;28;20381;-85
2022/05/02 08:29:23;;;;;;;;;;;17.70;96.80;;;;;;5071666;28;19970;-85
2022/05/02 08:32:15;;;;;;;;;;;17.70;96.00;;;;;;5071695;28;19912;-85
2022/05/02 08:34:41;;;;;;;;;;;17.60;96.50;;;;;;5015297;28;20539;-85
2022/05/02 08:37:06;;;;;;;;;;;17.80;96.40;;;;;;5071426;28;20172;-85
2022/05/02 08:39:36;;;;;;;;;;;17.90;96.30;;;;;;5071250;28;19915;-86
2022/05/02 08:42:04;;;;;;;;;;;18.10;96.10;;;;;;5071229;28;20432;-85
2022/05/02 08:44:30;;;;;;;;;;;18.30;96.00;;;;;;5071044;28;19927;-86
2022/05/02 08:47:19;;;;;;;;;;;18.30;95.20;;;;;;5071015;28;19908;-86
2022/05/02 08:50:03;;;;;;;;;;;18.10;95.90;;;;;;5052667;28;19919;-86
2022/05/02 08:52:44;;;;;;;;;;;18.10;95.70;;;;;;5053019;28;19962;-86
2022/05/02 08:55:16;;;;;;;;;;;18.00;95.50;;;;;;5070898;28;20003;-85
2022/05/02 08:58:07;;;;;;;;;;;17.90;96.10;;;;;;5071074;28;20384;-85
2022/05/02 09:00:33;;;;;;;;;;;17.90;95.90;;;;;;5053020;28;19912;-86
2022/05/02 09:03:01;;;;;;;;;;;17.90;95.70;;;;;;5070927;28;19919;-86
2022/05/02 09:05:47;;;;;;;;;;;18.10;96.00;;;;;;5070349;28;20148;-86
2022/05/02 09:08:23;;;;;;;;;;;18.20;95.10;;;;;;5051915;28;20268;-85
2022/05/02 09:10:55;;;;;;;;;;;18.40;95.60;;;;;;5070700;28;20387;-85
2022/05/02 09:13:24;;;;;;;;;;;18.60;95.10;;;;;;5070418;28;19908;-86
2022/05/02 09:15:49;;;;;;;;;;;18.70;95.20;;;;;;5070622;28;19919;-85
2022/05/02 09:18:18;;;;;;;;;;;18.80;95.10;;;;;;5070377;28;19912;-86
2022/05/02 09:20:56;;;;;;;;;;;18.90;95.00;;;;;;5070780;28;20365;-85
2022/05/02 09:23:34;;;;;;;;;;;18.90;93.90;;;;;;5070479;28;20373;-86
2022/05/02 09:26:03;;;;;;;;;;;19.00;94.10;;;;;;5070502;28;19920;-86
2022/05/02 09:28:30;;;;;;;;;;;19.10;93.80;;;;;;5070285;28;19955;-86
2022/05/02 09:31:14;;;;;;;;;;;19.10;93.50;;;;;;5052530;28;19915;-85
2022/05/02 09:33:44;;;;;;;;;;;19.20;93.40;;;;;;5052086;28;19938;-86
2022/05/02 09:36:21;;;;;;;;;;;19.30;93.90;;;;;;5070468;28;19996;-86
2022/05/02 09:38:48;;;;;;;;;;;19.40;93.30;;;;;;5052360;28;19955;-86
2022/05/02 09:41:34;;;;;;;;;;;19.70;92.80;;;;;;5070507;28;20040;-86
2022/05/02 09:50:14;;;;;;;;;;;20.00;92.60;;;;;;5070115;28;19998;-86
2022/05/02 09:52:45;;;;;;;;;;;20.10;92.10;;;;;;5052211;28;20403;-86
2022/05/02 09:58:08;;;;;;;;;;;20.10;92.50;;;;;;5066502;28;19915;-86
2022/05/02 10:01:06;;;;;;;;;;;20.50;92.00;;;;;;5052201;28;20373;-86
2022/05/02 10:03:34;;;;;;;;;;;20.70;91.20;;;;;;5069803;28;19916;-86
2022/05/02 10:06:05;;;;;;;;;;;21.00;90.90;;;;;;5070105;28;19912;-86
2022/05/02 10:08:38;;;;;;;;;;;21.00;90.90;;;;;;5070402;28;20007;-86
2022/05/02 10:11:12;;;;;;;;;;;21.00;90.60;;;;;;5069739;28;19908;-86
2022/05/02 10:13:55;;;;;;;;;;;21.00;90.10;;;;;;5051843;28;19915;-86
2022/05/02 10:16:39;;;;;;;;;;;21.00;90.00;;;;;;5069900;28;19954;-86
2022/05/02 10:19:09;;;;;;;;;;;21.00;90.40;;;;;;5069700;28;19909;-85
2022/05/02 10:21:47;;;;;;;;;;;21.10;90.90;;;;;;5070120;28;20160;-86
2022/05/02 10:24:13;;;;;;;;;;;21.20;90.50;;;;;;5064470;28;19920;-87
2022/05/02 10:26:41;;;;;;;;;;;21.30;90.10;;;;;;5071895;28;20412;-86
2022/05/02 10:29:25;;;;;;;;;;;21.40;90.30;;;;;;5073707;28;20316;-85
2022/05/02 10:32:00;;;;;;;;;;;21.50;89.40;;;;;;5055820;28;20328;-86
2022/05/02 10:34:27;;;;;;;;;;;21.40;88.60;;;;;;5073238;28;19909;-86
2022/05/02 10:36:53;;;;;;;;;;;21.50;88.60;;;;;;5073512;28;19912;-86
2022/05/02 10:39:28;;;;;;;;;;;21.50;87.90;;;;;;5055604;28;19935;-87
2022/05/02 10:41:58;;;;;;;;;;;21.50;87.40;;;;;;5073500;28;19961;-87
2022/05/02 10:44:27;;;;;;;;;;;21.40;86.50;;;;;;5055509;28;19924;-87
2022/05/02 10:46:58;;;;;;;;;;;21.40;88.20;;;;;;5073493;28;19955;-86
2022/05/02 10:49:27;;;;;;;;;;;21.50;87.10;;;;;;5054927;28;20332;-87
2022/05/02 10:52:01;;;;;;;;;;;21.50;85.90;;;;;;5073301;28;19978;-87
2022/05/02 10:54:27;;;;;;;;;;;21.20;85.90;;;;;;5073305;28;19909;-87
2022/05/02 10:57:13;;;;;;;;;;;21.10;85.70;;;;;;5055292;28;20295;-86
2022/05/02 10:59:44;;;;;;;;;;;21.30;86.20;;;;;;5054414;28;20281;-86
2022/05/02 11:02:24;;;;;;;;;;;21.40;85.10;;;;;;5055170;28;20349;-87
2022/05/02 11:05:07;;;;;;;;;;;21.40;85.50;;;;;;5055098;28;20019;-86
2022/05/02 11:07:39;;;;;;;;;;;21.60;85.50;;;;;;5073308;28;19952;-86
2022/05/02 11:10:07;;;;;;;;;;;21.80;84.30;;;;;;5055011;28;19909;-86
2022/05/02 11:12:44;;;;;;;;;;;21.80;82.60;;;;;;5072697;28;19999;-86
2022/05/02 11:15:16;;;;;;;;;;;21.80;83.10;;;;;;5072592;28;20363;-87
2022/05/02 11:17:48;;;;;;;;;;;21.70;80.90;;;;;;5054872;28;19909;-86
2022/05/02 11:23:10;;;;;;;;;;;21.60;82.20;;;;;;5072632;28;19923;-87
2022/05/02 11:25:39;;;;;;;;;;;21.80;83.10;;;;;;5054400;28;19912;-86
2022/05/02 11:28:07;;;;;;;;;;;22.20;82.40;;;;;;5072665;28;19908;-86
2022/05/02 11:30:37;;;;;;;;;;;22.50;82.10;;;;;;5072234;28;20411;-86
2022/05/02 11:33:25;;;;;;;;;;;22.80;80.20;;;;;;5072046;28;19909;-86
2022/05/02 11:35:54;;;;;;;;;;;22.90;79.00;;;;;;5058846;28;20429;-85
2022/05/02 11:38:29;;;;;;;;;;;22.80;77.30;;;;;;5072338;28;19951;-85
2022/05/02 11:40:59;;;;;;;;;;;22.70;77.10;;;;;;5072501;28;19930;-86
2022/05/02 11:43:29;;;;;;;;;;;22.70;76.90;;;;;;5072120;28;19923;-86
2022/05/02 11:45:57;;;;;;;;;;;22.70;74.50;;;;;;5072163;28;19908;-86
2022/05/02 11:48:29;;;;;;;;;;;22.70;74.00;;;;;;5071807;28;19916;-85
2022/05/02 11:50:56;;;;;;;;;;;22.70;75.10;;;;;;5072103;28;20301;-85
2022/05/02 11:53:24;;;;;;;;;;;22.70;76.30;;;;;;5072416;28;19909;-86
2022/05/02 11:55:50;;;;;;;;;;;22.80;75.90;;;;;;5054239;28;19913;-86
2022/05/02 11:58:25;;;;;;;;;;;23.00;75.10;;;;;;5072557;28;19909;-85
2022/05/02 12:00:51;;;;;;;;;;;22.90;76.60;;;;;;5072212;28;20400;-86
2022/05/02 12:03:22;;;;;;;;;;;23.10;75.50;;;;;;5053568;28;20222;-85
2022/05/02 12:05:47;;;;;;;;;;;23.20;76.30;;;;;;5053671;28;19916;-85
2022/05/02 12:08:25;;;;;;;;;;;23.30;74.90;;;;;;5071742;28;19908;-86
2022/05/02 12:11:03;;;;;;;;;;;23.60;74.20;;;;;;5071800;28;19908;-86
2022/05/02 12:13:32;;;;;;;;;;;23.70;74.70;;;;;;5053536;28;19912;-86
2022/05/02 12:15:59;;;;;;;;;;;23.60;73.20;;;;;;5071879;28;19948;-86
2022/05/02 12:18:38;;;;;;;;;;;23.60;74.60;;;;;;5053443;28;20003;-86
2022/05/02 12:21:05;;;;;;;;;;;23.90;74.90;;;;;;5071697;28;19909;-85
2022/05/02 12:23:33;;;;;;;;;;;23.90;74.20;;;;;;5053445;28;19952;-86
2022/05/02 12:26:01;;;;;;;;;;;23.80;73.10;;;;;;5053309;28;19920;-86
2022/05/02 12:28:41;;;;;;;;;;;23.90;72.50;;;;;;5071595;28;19909;-86
2022/05/02 12:31:07;;;;;;;;;;;24.00;72.50;;;;;;5071482;28;19909;-86
2022/05/02 12:33:34;;;;;;;;;;;24.10;70.30;;;;;;5070991;28;19915;-86
2022/05/02 12:36:00;;;;;;;;;;;24.30;70.00;;;;;;5071555;28;19915;-86
2022/05/02 12:38:28;;;;;;;;;;;24.60;70.30;;;;;;5071290;28;19912;-86
2022/05/02 12:41:01;;;;;;;;;;;25.00;71.20;;;;;;5071488;28;19919;-86
2022/05/02 12:43:32;;;;;;;;;;;25.40;71.10;;;;;;5071118;28;20301;-85
2022/05/02 12:46:06;;;;;;;;;;;25.60;71.40;;;;;;5053044;28;19971;-86
2022/05/02 12:48:36;;;;;;;;;;;25.80;71.40;;;;;;5070099;28;19909;-85
2022/05/02 12:51:02;;;;;;;;;;;26.00;70.00;;;;;;5052938;28;19908;-85
2022/05/02 12:56:13;;;;;;;;;;;26.10;69.30;;;;;;5071248;28;19997;-86
2022/05/02 13:01:29;;;;;;;;;;;26.00;69.60;;;;;;5070807;28;20396;-85
2022/05/02 13:03:59;;;;;;;;;;;26.00;68.30;;;;;;5070409;28;19927;-86
2022/05/02 13:06:25;;;;;;;;;;;25.80;66.00;;;;;;5070684;28;19943;-86
2022/05/02 13:08:51;;;;;;;;;;;25.70;66.70;;;;;;5070597;28;19970;-86
2022/05/02 13:11:21;;;;;;;;;;;25.80;66.90;;;;;;5070615;28;19916;-86
2022/05/02 13:13:52;;;;;;;;;;;25.90;65.50;;;;;;5070689;28;19986;-86
2022/05/02 13:16:27;;;;;;;;;;;26.30;65.90;;;;;;5070669;28;19931;-86
2022/05/02 13:18:53;;;;;;;;;;;26.80;65.70;;;;;;5070400;28;19908;-86
2022/05/02 13:21:19;;;;;;;;;;;27.20;64.10;;;;;;5070929;28;19909;-86
2022/05/02 13:23:49;;;;;;;;;;;27.60;65.10;;;;;;5070563;28;19916;-85
2022/05/02 13:26:14;;;;;;;;;;;27.70;63.30;;;;;;5070311;28;20462;-86
2022/05/02 13:28:59;;;;;;;;;;;27.10;62.80;;;;;;5070386;28;19908;-86
2022/05/02 13:31:30;;;;;;;;;;;26.50;64.50;;;;;;5070805;28;20379;-86
2022/05/02 13:33:58;;;;;;;;;;;26.60;64.10;;;;;;5069861;28;19916;-86
2022/05/02 13:36:24;;;;;;;;;;;27.20;64.60;;;;;;5070506;28;19909;-86
2022/05/02 13:39:00;;;;;;;;;;;27.80;63.40;;;;;;5052493;28;19966;-86
2022/05/02 13:41:34;;;;;;;;;;;28.30;62.30;;;;;;5070399;28;19916;-86
2022/05/02 13:44:09;;;;;;;;;;;29.40;63.30;;;;;;5070785;28;19916;-86
2022/05/02 13:46:51;;;;;;;;;;;29.70;61.20;;;;;;5070301;28;19916;-86
2022/05/02 13:49:20;;;;;;;;;;;29.80;60.50;;;;;;5069765;28;19999;-87
2022/05/02 13:52:08;;;;;;;;;;;30.10;60.40;;;;;;5070168;28;19908;-86
2022/05/02 13:54:35;;;;;;;;;;;29.70;60.60;;;;;;5051532;28;19916;-89
2022/05/02 13:57:15;;;;;;;;;;;29.50;62.20;;;;;;5070149;28;20001;-86
2022/05/02 13:59:54;;;;;;;;;;;30.20;61.60;;;;;;5065775;28;19951;-86
2022/05/02 14:02:50;;;;;;;;;;;31.40;59.60;;;;;;5073775;28;19908;-86
2022/05/02 14:05:30;;;;;;;;;;;33.00;59.20;;;;;;5056217;28;19916;-86
2022/05/02 14:07:56;;;;;;;;;;;34.60;57.50;;;;;;5074211;28;20345;-86
2022/05/02 14:10:24;;;;;;;;;;;35.60;56.50;;;;;;5074114;28;20392;-86
2022/05/02 14:12:50;;;;;;;;;;;36.40;54.60;;;;;;5074053;28;19919;-86
2022/05/02 14:15:16;;;;;;;;;;;37.10;52.70;;;;;;5056181;28;19909;-86
2022/05/02 14:17:46;;;;;;;;;;;37.80;51.70;;;;;;5074302;28;19915;-86
2022/05/02 14:20:14;;;;;;;;;;;38.90;51.40;;;;;;5074072;28;19947;-86
2022/05/02 14:22:42;;;;;;;;;;;39.80;50.10;;;;;;5073936;28;19912;-86
2022/05/02 14:25:10;;;;;;;;;;;39.30;48.80;;;;;;5074274;28;19912;-87
2022/05/02 14:27:37;;;;;;;;;;;40.00;49.10;;;;;;5073758;28;19931;-86
2022/05/02 14:30:04;;;;;;;;;;;39.90;49.00;;;;;;5055696;28;19908;-87
2022/05/02 14:32:43;;;;;;;;;;;38.70;47.40;;;;;;5073574;28;20396;-86
2022/05/02 14:35:21;;;;;;;;;;;36.80;47.80;;;;;;5073018;28;20469;-87
2022/05/02 14:37:47;;;;;;;;;;;34.60;47.90;;;;;;5073604;28;19909;-86
2022/05/02 14:40:13;;;;;;;;;;;33.80;49.30;;;;;;5073533;28;19932;-86
2022/05/02 14:42:39;;;;;;;;;;;33.50;49.30;;;;;;5073511;28;20277;-86
2022/05/02 14:45:05;;;;;;;;;;;33.00;50.00;;;;;;5073448;28;19959;-86
2022/05/02 14:47:32;;;;;;;;;;;32.90;50.50;;;;;;5073309;28;19908;-86
2022/05/02 14:49:57;;;;;;;;;;;32.60;50.00;;;;;;5072921;28;19912;-86
2022/05/02 14:52:25;;;;;;;;;;;32.50;50.40;;;;;;5055263;28;19915;-86
2022/05/02 14:54:51;;;;;;;;;;;32.90;50.00;;;;;;5073295;28;19909;-86
2022/05/02 14:57:21;;;;;;;;;;;33.20;49.10;;;;;;5073166;28;19977;-87
2022/05/02 14:59:46;;;;;;;;;;;33.90;48.90;;;;;;5073431;28;19909;-86
2022/05/02 15:02:13;;;;;;;;;;;34.60;48.80;;;;;;5073195;28;19908;-86